sensor_id;sensor_type;location;lat;lon;timestamp;P1;durP1;ratioP1;P2;durP2;ratioP2
25615;SDS011;13482;48.234;13.006;2023-02-28T00:01:32;2.83;;;1.38;;
25615;SDS011;13482;48.234;13.006;2023-02-28T00:03:59;2.20;;;1.40;;
25615;SDS011;13482;48.234;13.006;2023-02-28T00:06:27;2.15;;;1.50;;
25615;SDS011;13482;48.234;13.006;2023-02-28T00:08:54;2.70;;;1.60;;
25615;SDS011;13482;48.234;13.006;2023-02-28T00:11:21;2.75;;;1.70;;
25615;SDS011;13482;48.234;13.006;2023-02-28T00:13:48;2.30;;;1.60;;
25615;SDS011;13482;48.234;13.006;2023-02-28T00:16:21;2.80;;;1.50;;
25615;SDS011;13482;48.234;13.006;2023-02-28T00:18:49;2.55;;;1.50;;
25615;SDS011;13482;48.234;13.006;2023-02-28T00:21:17;3.17;;;1.50;;
25615;SDS011;13482;48.234;13.006;2023-02-28T00:23:46;3.58;;;1.73;;
25615;SDS011;13482;48.234;13.006;2023-02-28T00:26:14;2.50;;;1.42;;
25615;SDS011;13482;48.234;13.006;2023-02-28T00:28:41;3.35;;;1.60;;
25615;SDS011;13482;48.234;13.006;2023-02-28T00:31:08;2.10;;;1.50;;
25615;SDS011;13482;48.234;13.006;2023-02-28T00:33:35;2.67;;;1.65;;
25615;SDS011;13482;48.234;13.006;2023-02-28T00:36:06;2.30;;;1.58;;
25615;SDS011;13482;48.234;13.006;2023-02-28T00:38:36;3.80;;;1.45;;
25615;SDS011;13482;48.234;13.006;2023-02-28T00:41:04;3.47;;;1.60;;
25615;SDS011;13482;48.234;13.006;2023-02-28T00:43:33;3.42;;;1.80;;
25615;SDS011;13482;48.234;13.006;2023-02-28T00:46:01;2.55;;;1.50;;
25615;SDS011;13482;48.234;13.006;2023-02-28T00:48:29;3.08;;;1.80;;
25615;SDS011;13482;48.234;13.006;2023-02-28T00:50:58;3.20;;;1.70;;
25615;SDS011;13482;48.234;13.006;2023-02-28T00:53:26;2.75;;;1.70;;
25615;SDS011;13482;48.234;13.006;2023-02-28T00:55:53;2.72;;;1.70;;
25615;SDS011;13482;48.234;13.006;2023-02-28T00:58:20;3.78;;;1.83;;
25615;SDS011;13482;48.234;13.006;2023-02-28T01:00:47;3.03;;;1.70;;
25615;SDS011;13482;48.234;13.006;2023-02-28T01:03:18;3.30;;;1.90;;
25615;SDS011;13482;48.234;13.006;2023-02-28T01:05:47;2.70;;;1.80;;
25615;SDS011;13482;48.234;13.006;2023-02-28T01:08:14;2.75;;;1.67;;
25615;SDS011;13482;48.234;13.006;2023-02-28T01:10:42;2.47;;;1.90;;
25615;SDS011;13482;48.234;13.006;2023-02-28T01:13:09;2.92;;;1.77;;
25615;SDS011;13482;48.234;13.006;2023-02-28T01:15:38;3.25;;;1.90;;
25615;SDS011;13482;48.234;13.006;2023-02-28T01:18:10;3.88;;;2.20;;
25615;SDS011;13482;48.234;13.006;2023-02-28T01:20:38;3.90;;;1.92;;
25615;SDS011;13482;48.234;13.006;2023-02-28T01:23:05;3.45;;;2.10;;
25615;SDS011;13482;48.234;13.006;2023-02-28T01:25:34;3.60;;;2.08;;
25615;SDS011;13482;48.234;13.006;2023-02-28T01:28:02;4.00;;;1.90;;
25615;SDS011;13482;48.234;13.006;2023-02-28T01:30:30;3.33;;;2.00;;
25615;SDS011;13482;48.234;13.006;2023-02-28T01:32:58;3.45;;;2.08;;
25615;SDS011;13482;48.234;13.006;2023-02-28T01:35:25;3.78;;;2.20;;
25615;SDS011;13482;48.234;13.006;2023-02-28T01:37:52;3.63;;;2.17;;
25615;SDS011;13482;48.234;13.006;2023-02-28T01:40:20;3.05;;;1.98;;
25615;SDS011;13482;48.234;13.006;2023-02-28T01:42:48;3.20;;;2.00;;
25615;SDS011;13482;48.234;13.006;2023-02-28T01:45:23;3.10;;;2.30;;
25615;SDS011;13482;48.234;13.006;2023-02-28T01:47:59;4.45;;;2.42;;
25615;SDS011;13482;48.234;13.006;2023-02-28T01:50:32;3.55;;;2.40;;
25615;SDS011;13482;48.234;13.006;2023-02-28T01:53:05;3.85;;;2.17;;
25615;SDS011;13482;48.234;13.006;2023-02-28T01:55:40;3.35;;;2.20;;
25615;SDS011;13482;48.234;13.006;2023-02-28T01:58:12;4.32;;;2.50;;
25615;SDS011;13482;48.234;13.006;2023-02-28T02:00:40;3.92;;;2.22;;
25615;SDS011;13482;48.234;13.006;2023-02-28T02:03:09;3.97;;;2.20;;
25615;SDS011;13482;48.234;13.006;2023-02-28T02:05:42;4.00;;;2.45;;
25615;SDS011;13482;48.234;13.006;2023-02-28T02:10:56;3.90;;;2.38;;
25615;SDS011;13482;48.234;13.006;2023-02-28T02:40:03;4.57;;;2.83;;
25615;SDS011;13482;48.234;13.006;2023-02-28T02:45:32;4.70;;;2.92;;
25615;SDS011;13482;48.234;13.006;2023-02-28T02:48:06;4.30;;;2.97;;
25615;SDS011;13482;48.234;13.006;2023-02-28T02:50:42;5.05;;;2.70;;
25615;SDS011;13482;48.234;13.006;2023-02-28T02:53:17;5.78;;;3.38;;
25615;SDS011;13482;48.234;13.006;2023-02-28T02:55:50;5.03;;;3.53;;
25615;SDS011;13482;48.234;13.006;2023-02-28T02:58:22;6.35;;;3.60;;
25615;SDS011;13482;48.234;13.006;2023-02-28T03:00:59;5.18;;;3.05;;
25615;SDS011;13482;48.234;13.006;2023-02-28T03:03:29;5.18;;;3.28;;
25615;SDS011;13482;48.234;13.006;2023-02-28T03:05:59;4.35;;;3.13;;
25615;SDS011;13482;48.234;13.006;2023-02-28T03:08:28;5.72;;;3.55;;
25615;SDS011;13482;48.234;13.006;2023-02-28T03:11:09;5.38;;;3.60;;
25615;SDS011;13482;48.234;13.006;2023-02-28T03:14:18;5.88;;;3.53;;
25615;SDS011;13482;48.234;13.006;2023-02-28T03:20:40;4.93;;;3.20;;
25615;SDS011;13482;48.234;13.006;2023-02-28T03:23:35;5.13;;;3.38;;
25615;SDS011;13482;48.234;13.006;2023-02-28T03:26:18;6.00;;;3.67;;
25615;SDS011;13482;48.234;13.006;2023-02-28T03:32:11;5.50;;;3.45;;
25615;SDS011;13482;48.234;13.006;2023-02-28T03:34:50;5.68;;;3.50;;
25615;SDS011;13482;48.234;13.006;2023-02-28T03:37:56;6.63;;;3.80;;
25615;SDS011;13482;48.234;13.006;2023-02-28T03:41:33;5.13;;;3.10;;
25615;SDS011;13482;48.234;13.006;2023-02-28T03:43:53;5.03;;;3.38;;
25615;SDS011;13482;48.234;13.006;2023-02-28T03:46:27;6.25;;;4.00;;
25615;SDS011;13482;48.234;13.006;2023-02-28T03:49:03;5.57;;;3.92;;
25615;SDS011;13482;48.234;13.006;2023-02-28T03:51:42;6.15;;;4.00;;
25615;SDS011;13482;48.234;13.006;2023-02-28T03:54:13;5.67;;;3.20;;
25615;SDS011;13482;48.234;13.006;2023-02-28T03:56:48;5.90;;;4.18;;
25615;SDS011;13482;48.234;13.006;2023-02-28T03:59:27;6.10;;;4.25;;
25615;SDS011;13482;48.234;13.006;2023-02-28T04:01:59;5.90;;;3.97;;
25615;SDS011;13482;48.234;13.006;2023-02-28T04:04:27;5.85;;;4.03;;
25615;SDS011;13482;48.234;13.006;2023-02-28T04:07:00;6.35;;;4.05;;
25615;SDS011;13482;48.234;13.006;2023-02-28T04:09:36;5.95;;;3.83;;
25615;SDS011;13482;48.234;13.006;2023-02-28T04:12:04;6.22;;;3.80;;
25615;SDS011;13482;48.234;13.006;2023-02-28T04:14:32;6.25;;;4.32;;
25615;SDS011;13482;48.234;13.006;2023-02-28T04:16:59;6.45;;;3.72;;
25615;SDS011;13482;48.234;13.006;2023-02-28T04:19:26;6.43;;;3.95;;
25615;SDS011;13482;48.234;13.006;2023-02-28T04:21:53;5.93;;;3.90;;
25615;SDS011;13482;48.234;13.006;2023-02-28T04:24:25;5.95;;;3.92;;
25615;SDS011;13482;48.234;13.006;2023-02-28T04:26:54;7.32;;;4.15;;
25615;SDS011;13482;48.234;13.006;2023-02-28T04:29:24;5.75;;;3.72;;
25615;SDS011;13482;48.234;13.006;2023-02-28T04:32:01;6.15;;;3.50;;
25615;SDS011;13482;48.234;13.006;2023-02-28T04:34:30;5.90;;;3.58;;
25615;SDS011;13482;48.234;13.006;2023-02-28T04:36:58;6.90;;;4.30;;
25615;SDS011;13482;48.234;13.006;2023-02-28T04:39:42;6.45;;;4.10;;
25615;SDS011;13482;48.234;13.006;2023-02-28T04:42:10;6.15;;;4.10;;
25615;SDS011;13482;48.234;13.006;2023-02-28T04:44:38;7.13;;;4.00;;
25615;SDS011;13482;48.234;13.006;2023-02-28T04:47:05;7.07;;;4.10;;
25615;SDS011;13482;48.234;13.006;2023-02-28T04:49:32;5.90;;;3.90;;
25615;SDS011;13482;48.234;13.006;2023-02-28T04:51:59;5.40;;;3.70;;
25615;SDS011;13482;48.234;13.006;2023-02-28T04:54:27;5.45;;;3.72;;
25615;SDS011;13482;48.234;13.006;2023-02-28T04:56:54;5.65;;;3.72;;
25615;SDS011;13482;48.234;13.006;2023-02-28T04:59:22;6.55;;;4.10;;
25615;SDS011;13482;48.234;13.006;2023-02-28T05:01:49;5.95;;;3.67;;
25615;SDS011;13482;48.234;13.006;2023-02-28T05:04:17;5.97;;;3.92;;
25615;SDS011;13482;48.234;13.006;2023-02-28T05:06:45;6.40;;;4.10;;
25615;SDS011;13482;48.234;13.006;2023-02-28T05:09:12;6.68;;;4.20;;
25615;SDS011;13482;48.234;13.006;2023-02-28T05:11:40;5.65;;;3.53;;
25615;SDS011;13482;48.234;13.006;2023-02-28T05:14:11;5.65;;;3.88;;
25615;SDS011;13482;48.234;13.006;2023-02-28T05:16:40;5.57;;;3.85;;
25615;SDS011;13482;48.234;13.006;2023-02-28T05:19:07;6.28;;;4.20;;
25615;SDS011;13482;48.234;13.006;2023-02-28T05:21:36;5.53;;;3.83;;
25615;SDS011;13482;48.234;13.006;2023-02-28T05:24:11;5.47;;;3.65;;
25615;SDS011;13482;48.234;13.006;2023-02-28T05:26:40;4.72;;;3.30;;
25615;SDS011;13482;48.234;13.006;2023-02-28T05:29:09;4.82;;;3.45;;
25615;SDS011;13482;48.234;13.006;2023-02-28T05:31:37;6.93;;;3.80;;
25615;SDS011;13482;48.234;13.006;2023-02-28T05:34:04;5.90;;;3.53;;
25615;SDS011;13482;48.234;13.006;2023-02-28T05:36:32;5.18;;;3.60;;
25615;SDS011;13482;48.234;13.006;2023-02-28T05:38:59;6.00;;;4.07;;
25615;SDS011;13482;48.234;13.006;2023-02-28T05:41:26;4.97;;;3.25;;
25615;SDS011;13482;48.234;13.006;2023-02-28T05:43:54;6.85;;;3.83;;
25615;SDS011;13482;48.234;13.006;2023-02-28T05:46:21;5.45;;;3.40;;
25615;SDS011;13482;48.234;13.006;2023-02-28T05:48:48;5.93;;;3.92;;
25615;SDS011;13482;48.234;13.006;2023-02-28T05:51:16;5.38;;;3.28;;
25615;SDS011;13482;48.234;13.006;2023-02-28T05:53:44;5.97;;;3.65;;
25615;SDS011;13482;48.234;13.006;2023-02-28T05:56:11;5.28;;;3.15;;
25615;SDS011;13482;48.234;13.006;2023-02-28T05:58:38;5.35;;;3.50;;
25615;SDS011;13482;48.234;13.006;2023-02-28T06:01:23;6.03;;;3.50;;
25615;SDS011;13482;48.234;13.006;2023-02-28T06:04:03;4.32;;;2.88;;
25615;SDS011;13482;48.234;13.006;2023-02-28T06:06:37;6.60;;;3.10;;
25615;SDS011;13482;48.234;13.006;2023-02-28T06:09:05;6.47;;;3.83;;
25615;SDS011;13482;48.234;13.006;2023-02-28T06:11:33;6.05;;;3.45;;
25615;SDS011;13482;48.234;13.006;2023-02-28T06:14:00;5.25;;;3.60;;
25615;SDS011;13482;48.234;13.006;2023-02-28T06:16:28;5.30;;;3.67;;
25615;SDS011;13482;48.234;13.006;2023-02-28T06:18:57;5.97;;;3.67;;
25615;SDS011;13482;48.234;13.006;2023-02-28T06:21:26;5.93;;;3.97;;
25615;SDS011;13482;48.234;13.006;2023-02-28T06:23:56;5.50;;;3.97;;
25615;SDS011;13482;48.234;13.006;2023-02-28T06:26:24;6.45;;;4.40;;
25615;SDS011;13482;48.234;13.006;2023-02-28T06:28:52;6.18;;;4.18;;
25615;SDS011;13482;48.234;13.006;2023-02-28T06:31:21;6.90;;;4.03;;
25615;SDS011;13482;48.234;13.006;2023-02-28T06:33:48;5.63;;;3.70;;
25615;SDS011;13482;48.234;13.006;2023-02-28T06:36:16;5.47;;;3.60;;
25615;SDS011;13482;48.234;13.006;2023-02-28T06:38:44;6.32;;;3.85;;
25615;SDS011;13482;48.234;13.006;2023-02-28T06:41:12;5.00;;;3.78;;
25615;SDS011;13482;48.234;13.006;2023-02-28T06:43:40;5.22;;;3.60;;
25615;SDS011;13482;48.234;13.006;2023-02-28T06:46:09;6.38;;;3.70;;
25615;SDS011;13482;48.234;13.006;2023-02-28T06:51:09;4.85;;;3.20;;
25615;SDS011;13482;48.234;13.006;2023-02-28T06:53:40;4.60;;;3.03;;
25615;SDS011;13482;48.234;13.006;2023-02-28T06:56:09;5.00;;;3.17;;
25615;SDS011;13482;48.234;13.006;2023-02-28T06:58:39;5.45;;;4.10;;
25615;SDS011;13482;48.234;13.006;2023-02-28T07:01:07;5.90;;;3.90;;
25615;SDS011;13482;48.234;13.006;2023-02-28T07:03:35;6.20;;;3.90;;
25615;SDS011;13482;48.234;13.006;2023-02-28T07:06:04;6.07;;;3.65;;
25615;SDS011;13482;48.234;13.006;2023-02-28T07:08:32;5.45;;;3.50;;
25615;SDS011;13482;48.234;13.006;2023-02-28T07:11:00;6.72;;;4.10;;
25615;SDS011;13482;48.234;13.006;2023-02-28T07:13:28;6.13;;;4.20;;
25615;SDS011;13482;48.234;13.006;2023-02-28T07:16:03;5.78;;;4.03;;
25615;SDS011;13482;48.234;13.006;2023-02-28T07:18:32;5.82;;;4.18;;
25615;SDS011;13482;48.234;13.006;2023-02-28T07:21:07;6.00;;;3.80;;
25615;SDS011;13482;48.234;13.006;2023-02-28T07:23:39;6.90;;;3.90;;
25615;SDS011;13482;48.234;13.006;2023-02-28T07:26:10;5.65;;;3.75;;
25615;SDS011;13482;48.234;13.006;2023-02-28T07:28:41;5.78;;;3.50;;
25615;SDS011;13482;48.234;13.006;2023-02-28T07:31:09;5.35;;;3.72;;
25615;SDS011;13482;48.234;13.006;2023-02-28T07:33:37;5.78;;;3.80;;
25615;SDS011;13482;48.234;13.006;2023-02-28T07:36:09;4.95;;;3.22;;
25615;SDS011;13482;48.234;13.006;2023-02-28T07:38:43;5.20;;;3.60;;
25615;SDS011;13482;48.234;13.006;2023-02-28T07:41:15;5.40;;;3.70;;
25615;SDS011;13482;48.234;13.006;2023-02-28T07:43:44;5.60;;;3.33;;
25615;SDS011;13482;48.234;13.006;2023-02-28T07:46:12;4.95;;;3.58;;
25615;SDS011;13482;48.234;13.006;2023-02-28T07:48:42;6.07;;;3.95;;
25615;SDS011;13482;48.234;13.006;2023-02-28T07:51:10;5.25;;;3.38;;
25615;SDS011;13482;48.234;13.006;2023-02-28T07:53:37;4.90;;;3.88;;
25615;SDS011;13482;48.234;13.006;2023-02-28T07:56:04;5.28;;;3.65;;
25615;SDS011;13482;48.234;13.006;2023-02-28T07:58:32;5.78;;;3.58;;
25615;SDS011;13482;48.234;13.006;2023-02-28T08:01:06;8.05;;;3.83;;
25615;SDS011;13482;48.234;13.006;2023-02-28T08:03:35;7.28;;;3.58;;
25615;SDS011;13482;48.234;13.006;2023-02-28T08:06:04;5.28;;;3.60;;
25615;SDS011;13482;48.234;13.006;2023-02-28T08:08:33;6.18;;;3.97;;
25615;SDS011;13482;48.234;13.006;2023-02-28T08:11:02;6.10;;;3.78;;
25615;SDS011;13482;48.234;13.006;2023-02-28T08:13:30;6.13;;;3.95;;
25615;SDS011;13482;48.234;13.006;2023-02-28T08:15:57;6.65;;;4.18;;
25615;SDS011;13482;48.234;13.006;2023-02-28T08:18:24;7.20;;;3.88;;
25615;SDS011;13482;48.234;13.006;2023-02-28T08:20:51;5.53;;;3.83;;
25615;SDS011;13482;48.234;13.006;2023-02-28T08:23:19;6.20;;;4.25;;
25615;SDS011;13482;48.234;13.006;2023-02-28T08:25:52;6.57;;;4.45;;
25615;SDS011;13482;48.234;13.006;2023-02-28T08:28:21;5.65;;;3.72;;
25615;SDS011;13482;48.234;13.006;2023-02-28T08:30:52;5.43;;;3.65;;
25615;SDS011;13482;48.234;13.006;2023-02-28T08:33:20;5.55;;;4.00;;
25615;SDS011;13482;48.234;13.006;2023-02-28T08:35:51;5.40;;;3.80;;
25615;SDS011;13482;48.234;13.006;2023-02-28T08:38:20;6.75;;;4.15;;
25615;SDS011;13482;48.234;13.006;2023-02-28T08:40:49;6.03;;;4.13;;
25615;SDS011;13482;48.234;13.006;2023-02-28T08:43:16;5.60;;;4.00;;
25615;SDS011;13482;48.234;13.006;2023-02-28T08:45:43;6.85;;;3.97;;
25615;SDS011;13482;48.234;13.006;2023-02-28T08:48:11;6.57;;;4.07;;
25615;SDS011;13482;48.234;13.006;2023-02-28T08:50:39;6.22;;;3.83;;
25615;SDS011;13482;48.234;13.006;2023-02-28T08:53:06;6.30;;;3.90;;
25615;SDS011;13482;48.234;13.006;2023-02-28T08:55:34;5.25;;;3.60;;
25615;SDS011;13482;48.234;13.006;2023-02-28T08:58:01;6.50;;;4.03;;
25615;SDS011;13482;48.234;13.006;2023-02-28T09:00:28;4.38;;;3.47;;
25615;SDS011;13482;48.234;13.006;2023-02-28T09:02:55;5.50;;;3.92;;
25615;SDS011;13482;48.234;13.006;2023-02-28T09:05:22;5.80;;;3.80;;
25615;SDS011;13482;48.234;13.006;2023-02-28T09:07:49;6.22;;;4.30;;
25615;SDS011;13482;48.234;13.006;2023-02-28T09:10:16;6.15;;;4.28;;
25615;SDS011;13482;48.234;13.006;2023-02-28T09:12:44;6.60;;;3.95;;
25615;SDS011;13482;48.234;13.006;2023-02-28T09:15:12;5.68;;;3.83;;
25615;SDS011;13482;48.234;13.006;2023-02-28T09:17:40;6.20;;;4.10;;
25615;SDS011;13482;48.234;13.006;2023-02-28T09:20:08;5.95;;;4.32;;
25615;SDS011;13482;48.234;13.006;2023-02-28T09:22:36;5.63;;;4.10;;
25615;SDS011;13482;48.234;13.006;2023-02-28T09:25:04;6.13;;;4.43;;
25615;SDS011;13482;48.234;13.006;2023-02-28T09:27:31;5.65;;;3.92;;
25615;SDS011;13482;48.234;13.006;2023-02-28T09:29:58;6.18;;;4.00;;
25615;SDS011;13482;48.234;13.006;2023-02-28T09:32:25;6.97;;;3.75;;
25615;SDS011;13482;48.234;13.006;2023-02-28T09:34:52;6.15;;;3.60;;
25615;SDS011;13482;48.234;13.006;2023-02-28T09:37:20;6.13;;;4.20;;
25615;SDS011;13482;48.234;13.006;2023-02-28T09:39:47;6.03;;;4.18;;
25615;SDS011;13482;48.234;13.006;2023-02-28T09:42:18;5.80;;;4.10;;
25615;SDS011;13482;48.234;13.006;2023-02-28T09:44:53;6.13;;;3.80;;
25615;SDS011;13482;48.234;13.006;2023-02-28T09:47:36;6.25;;;4.00;;
25615;SDS011;13482;48.234;13.006;2023-02-28T09:50:22;5.25;;;3.63;;
25615;SDS011;13482;48.234;13.006;2023-02-28T09:53:01;6.38;;;4.00;;
25615;SDS011;13482;48.234;13.006;2023-02-28T09:55:41;5.63;;;4.05;;
25615;SDS011;13482;48.234;13.006;2023-02-28T09:58:20;5.82;;;4.05;;
25615;SDS011;13482;48.234;13.006;2023-02-28T10:01:10;5.18;;;3.47;;
25615;SDS011;13482;48.234;13.006;2023-02-28T10:03:55;4.90;;;3.45;;
25615;SDS011;13482;48.234;13.006;2023-02-28T10:06:46;6.13;;;4.18;;
25615;SDS011;13482;48.234;13.006;2023-02-28T10:09:21;6.07;;;3.85;;
25615;SDS011;13482;48.234;13.006;2023-02-28T10:11:56;6.03;;;3.83;;
25615;SDS011;13482;48.234;13.006;2023-02-28T10:14:32;5.15;;;3.88;;
25615;SDS011;13482;48.234;13.006;2023-02-28T10:17:03;6.13;;;3.95;;
25615;SDS011;13482;48.234;13.006;2023-02-28T10:19:40;5.57;;;3.97;;
25615;SDS011;13482;48.234;13.006;2023-02-28T10:22:35;4.88;;;3.55;;
25615;SDS011;13482;48.234;13.006;2023-02-28T10:25:21;6.18;;;4.00;;
25615;SDS011;13482;48.234;13.006;2023-02-28T10:28:00;5.55;;;3.80;;
25615;SDS011;13482;48.234;13.006;2023-02-28T10:30:36;4.72;;;3.58;;
25615;SDS011;13482;48.234;13.006;2023-02-28T10:33:22;6.60;;;3.97;;
25615;SDS011;13482;48.234;13.006;2023-02-28T10:36:01;5.63;;;3.80;;
25615;SDS011;13482;48.234;13.006;2023-02-28T10:41:09;6.93;;;3.83;;
25615;SDS011;13482;48.234;13.006;2023-02-28T10:43:42;5.80;;;4.38;;
25615;SDS011;13482;48.234;13.006;2023-02-28T10:46:15;5.50;;;3.67;;
25615;SDS011;13482;48.234;13.006;2023-02-28T10:49:03;5.25;;;3.80;;
25615;SDS011;13482;48.234;13.006;2023-02-28T10:51:34;5.35;;;3.97;;
25615;SDS011;13482;48.234;13.006;2023-02-28T10:54:05;5.25;;;3.92;;
25615;SDS011;13482;48.234;13.006;2023-02-28T10:59:50;6.28;;;3.42;;
25615;SDS011;13482;48.234;13.006;2023-02-28T11:02:43;6.88;;;4.13;;
25615;SDS011;13482;48.234;13.006;2023-02-28T11:08:04;5.55;;;3.88;;
25615;SDS011;13482;48.234;13.006;2023-02-28T11:10:39;5.28;;;4.03;;
25615;SDS011;13482;48.234;13.006;2023-02-28T11:13:16;5.88;;;4.18;;
25615;SDS011;13482;48.234;13.006;2023-02-28T11:15:50;6.78;;;4.13;;
25615;SDS011;13482;48.234;13.006;2023-02-28T11:18:38;5.80;;;4.03;;
25615;SDS011;13482;48.234;13.006;2023-02-28T11:21:21;5.70;;;3.85;;
25615;SDS011;13482;48.234;13.006;2023-02-28T11:24:00;5.28;;;4.00;;
25615;SDS011;13482;48.234;13.006;2023-02-28T11:26:56;4.50;;;3.63;;
25615;SDS011;13482;48.234;13.006;2023-02-28T11:29:25;5.75;;;4.15;;
25615;SDS011;13482;48.234;13.006;2023-02-28T11:32:02;5.20;;;3.70;;
25615;SDS011;13482;48.234;13.006;2023-02-28T11:34:39;5.63;;;3.97;;
25615;SDS011;13482;48.234;13.006;2023-02-28T11:37:18;6.78;;;4.38;;
25615;SDS011;13482;48.234;13.006;2023-02-28T11:39:54;5.18;;;3.65;;
25615;SDS011;13482;48.234;13.006;2023-02-28T11:45:31;4.97;;;3.85;;
25615;SDS011;13482;48.234;13.006;2023-02-28T12:13:34;5.15;;;3.58;;
25615;SDS011;13482;48.234;13.006;2023-02-28T12:16:38;4.57;;;3.45;;
25615;SDS011;13482;48.234;13.006;2023-02-28T12:19:47;6.18;;;3.78;;
25615;SDS011;13482;48.234;13.006;2023-02-28T12:25:38;4.88;;;4.07;;
25615;SDS011;13482;48.234;13.006;2023-02-28T12:28:33;6.28;;;3.83;;
25615;SDS011;13482;48.234;13.006;2023-02-28T12:31:10;6.25;;;3.92;;
25615;SDS011;13482;48.234;13.006;2023-02-28T12:33:45;5.25;;;3.78;;
25615;SDS011;13482;48.234;13.006;2023-02-28T12:36:19;5.47;;;3.97;;
25615;SDS011;13482;48.234;13.006;2023-02-28T12:39:00;4.82;;;3.88;;
25615;SDS011;13482;48.234;13.006;2023-02-28T12:41:48;4.65;;;3.58;;
25615;SDS011;13482;48.234;13.006;2023-02-28T12:44:32;4.03;;;3.30;;
25615;SDS011;13482;48.234;13.006;2023-02-28T12:47:19;5.22;;;4.18;;
25615;SDS011;13482;48.234;13.006;2023-02-28T12:58:30;4.78;;;3.65;;
25615;SDS011;13482;48.234;13.006;2023-02-28T13:10:10;5.63;;;3.80;;
25615;SDS011;13482;48.234;13.006;2023-02-28T13:12:37;5.13;;;3.60;;
25615;SDS011;13482;48.234;13.006;2023-02-28T13:15:21;6.15;;;4.20;;
25615;SDS011;13482;48.234;13.006;2023-02-28T13:17:52;5.40;;;3.63;;
25615;SDS011;13482;48.234;13.006;2023-02-28T13:20:26;5.63;;;4.22;;
25615;SDS011;13482;48.234;13.006;2023-02-28T13:23:01;6.85;;;4.22;;
25615;SDS011;13482;48.234;13.006;2023-02-28T13:28:11;5.80;;;3.85;;
25615;SDS011;13482;48.234;13.006;2023-02-28T13:31:21;5.35;;;3.95;;
25615;SDS011;13482;48.234;13.006;2023-02-28T13:36:29;6.00;;;4.30;;
25615;SDS011;13482;48.234;13.006;2023-02-28T13:39:02;5.22;;;4.05;;
25615;SDS011;13482;48.234;13.006;2023-02-28T13:58:40;5.32;;;3.78;;
25615;SDS011;13482;48.234;13.006;2023-02-28T14:07:28;4.88;;;3.75;;
25615;SDS011;13482;48.234;13.006;2023-02-28T14:10:03;4.90;;;3.80;;
25615;SDS011;13482;48.234;13.006;2023-02-28T14:15:26;5.22;;;3.90;;
25615;SDS011;13482;48.234;13.006;2023-02-28T14:18:03;5.30;;;4.07;;
25615;SDS011;13482;48.234;13.006;2023-02-28T14:20:44;5.40;;;4.30;;
25615;SDS011;13482;48.234;13.006;2023-02-28T14:32:02;4.90;;;3.80;;
25615;SDS011;13482;48.234;13.006;2023-02-28T14:34:53;4.75;;;3.83;;
25615;SDS011;13482;48.234;13.006;2023-02-28T14:37:44;5.45;;;4.03;;
25615;SDS011;13482;48.234;13.006;2023-02-28T14:40:29;5.75;;;4.30;;
25615;SDS011;13482;48.234;13.006;2023-02-28T14:43:01;5.93;;;4.15;;
25615;SDS011;13482;48.234;13.006;2023-02-28T14:45:33;5.63;;;4.13;;
25615;SDS011;13482;48.234;13.006;2023-02-28T14:48:03;5.70;;;4.20;;
25615;SDS011;13482;48.234;13.006;2023-02-28T14:50:36;5.40;;;4.22;;
25615;SDS011;13482;48.234;13.006;2023-02-28T14:53:04;5.07;;;4.07;;
25615;SDS011;13482;48.234;13.006;2023-02-28T14:55:44;4.72;;;3.85;;
25615;SDS011;13482;48.234;13.006;2023-02-28T14:58:21;5.60;;;4.30;;
25615;SDS011;13482;48.234;13.006;2023-02-28T15:01:00;5.65;;;3.67;;
25615;SDS011;13482;48.234;13.006;2023-02-28T15:03:34;5.80;;;4.35;;
25615;SDS011;13482;48.234;13.006;2023-02-28T15:06:05;5.70;;;4.40;;
25615;SDS011;13482;48.234;13.006;2023-02-28T15:08:40;5.75;;;4.10;;
25615;SDS011;13482;48.234;13.006;2023-02-28T15:11:08;5.75;;;4.35;;
25615;SDS011;13482;48.234;13.006;2023-02-28T15:13:49;5.40;;;4.07;;
25615;SDS011;13482;48.234;13.006;2023-02-28T15:16:36;5.30;;;4.25;;
25615;SDS011;13482;48.234;13.006;2023-02-28T15:19:30;5.82;;;4.22;;
25615;SDS011;13482;48.234;13.006;2023-02-28T15:22:02;5.55;;;4.32;;
25615;SDS011;13482;48.234;13.006;2023-02-28T15:24:39;5.63;;;4.35;;
25615;SDS011;13482;48.234;13.006;2023-02-28T15:29:49;5.13;;;4.03;;
25615;SDS011;13482;48.234;13.006;2023-02-28T15:32:28;6.07;;;4.55;;
25615;SDS011;13482;48.234;13.006;2023-02-28T15:35:16;5.60;;;4.38;;
25615;SDS011;13482;48.234;13.006;2023-02-28T15:37:47;5.45;;;4.05;;
25615;SDS011;13482;48.234;13.006;2023-02-28T15:40:41;6.85;;;4.25;;
25615;SDS011;13482;48.234;13.006;2023-02-28T15:43:15;5.68;;;4.05;;
25615;SDS011;13482;48.234;13.006;2023-02-28T15:48:43;5.43;;;4.13;;
25615;SDS011;13482;48.234;13.006;2023-02-28T15:51:36;4.93;;;3.92;;
25615;SDS011;13482;48.234;13.006;2023-02-28T15:54:05;5.28;;;4.28;;
25615;SDS011;13482;48.234;13.006;2023-02-28T15:56:38;5.13;;;4.15;;
25615;SDS011;13482;48.234;13.006;2023-02-28T15:59:21;5.70;;;4.32;;
25615;SDS011;13482;48.234;13.006;2023-02-28T16:05:02;6.55;;;4.68;;
25615;SDS011;13482;48.234;13.006;2023-02-28T16:07:55;6.82;;;5.00;;
25615;SDS011;13482;48.234;13.006;2023-02-28T16:10:41;6.10;;;4.63;;
25615;SDS011;13482;48.234;13.006;2023-02-28T16:13:09;7.07;;;5.53;;
25615;SDS011;13482;48.234;13.006;2023-02-28T16:15:42;7.13;;;5.40;;
25615;SDS011;13482;48.234;13.006;2023-02-28T16:18:12;7.40;;;5.60;;
25615;SDS011;13482;48.234;13.006;2023-02-28T16:20:40;7.93;;;5.40;;
25615;SDS011;13482;48.234;13.006;2023-02-28T16:23:07;8.80;;;5.43;;
25615;SDS011;13482;48.234;13.006;2023-02-28T16:25:35;7.20;;;5.32;;
25615;SDS011;13482;48.234;13.006;2023-02-28T16:28:19;8.10;;;5.25;;
25615;SDS011;13482;48.234;13.006;2023-02-28T16:30:51;8.13;;;5.03;;
25615;SDS011;13482;48.234;13.006;2023-02-28T16:33:19;9.90;;;5.85;;
25615;SDS011;13482;48.234;13.006;2023-02-28T16:35:46;7.90;;;5.63;;
25615;SDS011;13482;48.234;13.006;2023-02-28T16:38:13;6.65;;;5.07;;
25615;SDS011;13482;48.234;13.006;2023-02-28T16:40:41;8.23;;;5.70;;
25615;SDS011;13482;48.234;13.006;2023-02-28T16:43:09;8.25;;;5.40;;
25615;SDS011;13482;48.234;13.006;2023-02-28T16:45:43;7.95;;;6.15;;
25615;SDS011;13482;48.234;13.006;2023-02-28T16:48:12;7.85;;;5.80;;
25615;SDS011;13482;48.234;13.006;2023-02-28T16:50:42;7.32;;;5.45;;
25615;SDS011;13482;48.234;13.006;2023-02-28T16:53:10;7.72;;;5.70;;
25615;SDS011;13482;48.234;13.006;2023-02-28T16:55:38;7.28;;;5.28;;
25615;SDS011;13482;48.234;13.006;2023-02-28T16:58:05;7.32;;;5.35;;
25615;SDS011;13482;48.234;13.006;2023-02-28T17:00:32;7.38;;;5.60;;
25615;SDS011;13482;48.234;13.006;2023-02-28T17:03:00;8.85;;;5.88;;
25615;SDS011;13482;48.234;13.006;2023-02-28T17:05:35;7.80;;;5.45;;
25615;SDS011;13482;48.234;13.006;2023-02-28T17:08:05;8.10;;;6.20;;
25615;SDS011;13482;48.234;13.006;2023-02-28T17:10:32;6.90;;;5.57;;
25615;SDS011;13482;48.234;13.006;2023-02-28T17:13:00;8.23;;;5.70;;
25615;SDS011;13482;48.234;13.006;2023-02-28T17:15:40;7.63;;;5.43;;
25615;SDS011;13482;48.234;13.006;2023-02-28T17:18:08;6.68;;;5.32;;
25615;SDS011;13482;48.234;13.006;2023-02-28T17:20:41;7.88;;;5.60;;
25615;SDS011;13482;48.234;13.006;2023-02-28T17:23:08;7.85;;;5.40;;
25615;SDS011;13482;48.234;13.006;2023-02-28T17:25:36;6.68;;;5.25;;
25615;SDS011;13482;48.234;13.006;2023-02-28T17:28:03;6.82;;;5.30;;
25615;SDS011;13482;48.234;13.006;2023-02-28T17:30:31;8.15;;;5.60;;
25615;SDS011;13482;48.234;13.006;2023-02-28T17:33:00;8.02;;;5.78;;
25615;SDS011;13482;48.234;13.006;2023-02-28T17:35:28;7.93;;;5.38;;